Weather History for Kake, AK

Change the Weather History Date:

Thursday, April 4, 2013

  Actual Average Record
Temperature  
Mean Temperature 40 °F -  
Max Temperature 46 °F 41 °F 48 °F (1997)
Min Temperature 33 °F 29 °F 21 °F (2007)
Degree Days  
Heating Degree Days 26    
Moisture  
Dew Point 22 °F    
Average Humidity 51    
Maximum Humidity 75    
Minimum Humidity 34    
Precipitation  
Precipitation 0.00 in - - ()
Sea Level Pressure  
Sea Level Pressure 29.87 in    
Wind  
Wind Speed 8 mph (NNE)    
Max Wind Speed 12 mph    
Max Gust Speed 20 mph    
Visibility 10 miles    
Events      
Averages and records for this station are not official NWS values.
T = Trace of Precipitation, MM = Missing Value Source: NWS Daily Summary

Daily Weather History Graph

Daily Weather History Graph

Search for Another Location

Airport:

Trip Planner

Search our weather history database for the weather conditions in past years. The results will help you decide how hot, cold, wet, or windy it might be!

Date:

Astronomy

Apr. 04, 2013 Rise Set
Actual Time 6:15 AM AKDT 7:42 PM AKDT
Civil Twilight 5:36 AM AKDT 8:22 PM AKDT
Nautical Twilight 4:47 AM AKDT 9:11 PM AKDT
Astronomical Twilight 3:51 AM AKDT 10:07 PM AKDT
Moon 3:52 AM AKDT (4/4) 1:07 PM AKDT (4/4)
Length of Visible Light 14h 45m
Length of Day
13h 26m
Waning Crescent, 32% of the Moon is Illuminated
Apr 4
Waning Crescent
Apr 10
New
Apr 18
First Quarter
Apr 25
Full
May 2
Last Quarter

Hourly Weather History & Observations

Time (AKDT) Temp. Windchill Dew Point Humidity Pressure Visibility Wind Dir Wind Speed Gust Speed Precip Events Conditions
12:16 AM 35.6 °F 27.5 °F 28.4 °F 75% 30.09 in 10.0 mi NE 11.5 mph 17.3 mph N/A   Clear
12:36 AM 35.6 °F 29.2 °F 26.6 °F 70% 30.09 in 10.0 mi NE 8.1 mph - N/A   Clear
12:56 AM 35.6 °F 29.9 °F 28.4 °F 75% 30.09 in 10.0 mi NE 6.9 mph - N/A   Clear
1:16 AM 35.6 °F 27.5 °F 28.4 °F 75% 30.08 in 10.0 mi ENE 11.5 mph 18.4 mph N/A   Clear
1:36 AM 35.6 °F 28.0 °F 26.6 °F 70% 30.08 in 10.0 mi NE 10.4 mph 16.1 mph N/A   Clear
1:56 AM 35.6 °F 28.6 °F 26.6 °F 70% 30.08 in 10.0 mi NE 9.2 mph - N/A   Clear
2:16 AM 35.6 °F 29.2 °F 26.6 °F 70% 30.08 in 10.0 mi NE 8.1 mph - N/A   Clear
2:36 AM 35.6 °F 29.9 °F 26.6 °F 70% 30.07 in 10.0 mi NE 6.9 mph - N/A   Clear
2:56 AM 35.6 °F - 26.6 °F 70% 30.06 in 10.0 mi Calm Calm - N/A   Clear
3:16 AM 35.6 °F 29.9 °F 26.6 °F 70% 30.05 in 10.0 mi ENE 6.9 mph - N/A   Clear
3:36 AM 35.6 °F 32.8 °F 26.6 °F 70% 30.05 in 10.0 mi NE 3.5 mph - N/A   Clear
3:56 AM 35.6 °F 31.7 °F 26.6 °F 70% 30.04 in 10.0 mi NNE 4.6 mph - N/A   Clear
4:16 AM 33.8 °F 29.6 °F 24.8 °F 70% 30.03 in 10.0 mi NNE 4.6 mph - N/A   Clear
4:36 AM 35.6 °F 30.7 °F 26.6 °F 70% 30.02 in 10.0 mi NE 5.8 mph - N/A   Clear
4:56 AM 35.6 °F 30.7 °F 24.8 °F 65% 30.02 in 10.0 mi ENE 5.8 mph - N/A   Clear
5:16 AM 33.8 °F 27.0 °F 26.6 °F 75% 30.01 in 10.0 mi NE 8.1 mph - N/A   Clear
5:36 AM 35.6 °F 28.0 °F 24.8 °F 65% 30.00 in 10.0 mi NE 10.4 mph 18.4 mph N/A   Clear
5:56 AM 33.8 °F 26.4 °F 24.8 °F 70% 29.99 in 10.0 mi NE 9.2 mph - N/A   Clear
6:16 AM 33.8 °F 30.8 °F 24.8 °F 70% 29.99 in 10.0 mi NE 3.5 mph - N/A   Clear
6:36 AM 33.8 °F - 24.8 °F 70% 29.99 in 10.0 mi Calm Calm - N/A   Clear
6:56 AM 33.8 °F - 24.8 °F 70% 29.98 in 10.0 mi Calm Calm - N/A   Clear
7:16 AM 33.8 °F - 24.8 °F 70% 29.98 in 10.0 mi Calm Calm - N/A   Clear
7:36 AM 33.8 °F 30.8 °F 24.8 °F 70% 29.97 in 10.0 mi ENE 3.5 mph - N/A   Clear
7:56 AM 35.6 °F 31.7 °F 23.0 °F 60% 29.96 in 10.0 mi NNE 4.6 mph - N/A   Clear
8:36 AM 37.4 °F 31.4 °F 21.2 °F 52% 29.95 in 10.0 mi NNE 8.1 mph - N/A   Clear
8:56 AM 37.4 °F 32.8 °F 23.0 °F 56% 29.94 in 10.0 mi North 5.8 mph - N/A   Clear
9:16 AM 39.2 °F 35.0 °F 23.0 °F 52% 29.94 in 10.0 mi NNE 5.8 mph - N/A   Clear
9:36 AM 39.2 °F 33.6 °F 21.2 °F 49% 29.93 in 10.0 mi NNE 8.1 mph - N/A   Clear
9:56 AM 39.2 °F 33.0 °F 21.2 °F 49% 29.92 in 10.0 mi NE 9.2 mph - N/A   Clear
10:16 AM 41.0 °F 35.8 °F 21.2 °F 45% 29.91 in 10.0 mi NE 8.1 mph - N/A   Clear
10:36 AM 41.0 °F 36.4 °F 21.2 °F 45% 29.90 in 10.0 mi NE 6.9 mph 16.1 mph N/A   Clear
10:56 AM 42.8 °F 39.3 °F 21.2 °F 42% 29.90 in 10.0 mi NE 5.8 mph 18.4 mph N/A   Clear
11:16 AM 42.8 °F 38.0 °F 21.2 °F 42% 29.89 in 10.0 mi NE 8.1 mph - N/A   Clear
11:36 AM 42.8 °F 38.0 °F 21.2 °F 42% 29.88 in 10.0 mi NE 8.1 mph - N/A   Clear
11:56 AM 44.6 °F 39.2 °F 21.2 °F 39% 29.88 in 10.0 mi ENE 10.4 mph - N/A   Clear
12:16 PM 44.6 °F 40.7 °F 21.2 °F 39% 29.87 in 10.0 mi NE 6.9 mph - N/A   Clear
12:36 PM 44.6 °F 38.8 °F 21.2 °F 39% 29.86 in 10.0 mi ENE 11.5 mph 16.1 mph N/A   Clear
12:56 PM 44.6 °F 40.7 °F 21.2 °F 39% 29.86 in 10.0 mi NE 6.9 mph - N/A   Clear
1:16 PM 46.4 °F 42.9 °F 21.2 °F 37% 29.85 in 10.0 mi NE 6.9 mph 16.1 mph N/A   Clear
1:36 PM 46.4 °F 44.3 °F 21.2 °F 37% 29.84 in 10.0 mi North 4.6 mph - N/A   Clear
1:56 PM 46.4 °F 41.9 °F 19.4 °F 34% 29.83 in 10.0 mi NNW 9.2 mph - N/A   Clear
2:16 PM 46.4 °F 41.9 °F 21.2 °F 37% 29.82 in 10.0 mi NNE 9.2 mph - N/A   Clear
2:36 PM 46.4 °F 42.9 °F 19.4 °F 34% 29.81 in 10.0 mi NNW 6.9 mph - N/A   Clear
2:56 PM 46.4 °F 42.9 °F 19.4 °F 34% 29.81 in 10.0 mi NNE 6.9 mph - N/A   Clear
3:16 PM 46.4 °F 41.5 °F 19.4 °F 34% 29.80 in 10.0 mi NE 10.4 mph 17.3 mph N/A   Clear
3:36 PM 46.4 °F 42.4 °F 19.4 °F 34% 29.79 in 10.0 mi NNE 8.1 mph 18.4 mph N/A   Clear
3:56 PM 46.4 °F 41.1 °F 19.4 °F 34% 29.78 in 10.0 mi NE 11.5 mph 17.3 mph N/A   Clear
4:16 PM 46.4 °F 42.9 °F 19.4 °F 34% 29.78 in 10.0 mi NE 6.9 mph - N/A   Clear
4:36 PM 46.4 °F 41.5 °F 19.4 °F 34% 29.76 in 10.0 mi NNE 10.4 mph 19.6 mph N/A   Clear
4:56 PM 44.6 °F 39.7 °F 17.6 °F 34% 29.76 in 10.0 mi NNE 9.2 mph - N/A   Clear
5:16 PM 44.6 °F 40.2 °F 19.4 °F 37% 29.74 in 10.0 mi North 8.1 mph 16.1 mph N/A   Clear
5:36 PM 44.6 °F 40.7 °F 19.4 °F 37% 29.74 in 10.0 mi NNE 6.9 mph - N/A   Clear
5:56 PM 44.6 °F 40.7 °F 19.4 °F 37% 29.72 in 10.0 mi North 6.9 mph - N/A   Clear
6:16 PM 42.8 °F 37.5 °F 17.6 °F 36% 29.71 in 10.0 mi NNE 9.2 mph - N/A   Clear
6:36 PM 42.8 °F 38.0 °F 17.6 °F 36% 29.71 in 10.0 mi NNE 8.1 mph 17.3 mph N/A   Clear
6:56 PM 42.8 °F 37.0 °F 17.6 °F 36% 29.70 in 10.0 mi NNE 10.4 mph 16.1 mph N/A   Clear
7:16 PM 41.0 °F 34.3 °F 15.8 °F 36% 29.70 in 10.0 mi NNE 11.5 mph - N/A   Clear
7:36 PM 39.2 °F 33.6 °F 15.8 °F 39% 29.69 in 10.0 mi NE 8.1 mph 17.3 mph N/A   Clear
7:56 PM 39.2 °F 32.0 °F 17.6 °F 42% 29.69 in 10.0 mi NE 11.5 mph 16.1 mph N/A   Clear
8:16 PM 39.2 °F 32.5 °F 17.6 °F 42% 29.68 in 10.0 mi NE 10.4 mph 18.4 mph N/A   Clear
8:36 PM 37.4 °F 29.8 °F 17.6 °F 45% 29.68 in 10.0 mi NE 11.5 mph - N/A   Clear
8:56 PM 37.4 °F 32.1 °F 17.6 °F 45% 29.68 in 10.0 mi North 6.9 mph - N/A   Clear
9:16 PM 37.4 °F 32.8 °F 17.6 °F 45% 29.67 in 10.0 mi North 5.8 mph - N/A   Clear
9:36 PM 37.4 °F 34.9 °F 17.6 °F 45% 29.67 in 10.0 mi North 3.5 mph - N/A   Clear
9:56 PM 37.4 °F 33.8 °F 17.6 °F 45% 29.67 in 10.0 mi North 4.6 mph - N/A   Clear
10:16 PM 37.4 °F 33.8 °F 17.6 °F 45% 29.66 in 10.0 mi NNW 4.6 mph - N/A   Clear
10:36 PM 35.6 °F 32.8 °F 17.6 °F 48% 29.66 in 10.0 mi NNW 3.5 mph - N/A   Clear
10:56 PM 35.6 °F 31.7 °F 17.6 °F 48% 29.66 in 10.0 mi North 4.6 mph - N/A   Clear
11:16 PM 35.6 °F 29.9 °F 17.6 °F 48% 29.66 in 10.0 mi NW 6.9 mph - N/A   Clear
11:36 PM 35.6 °F 31.7 °F 17.6 °F 48% 29.65 in 10.0 mi NNW 4.6 mph - N/A   Clear
11:56 PM 35.6 °F 31.7 °F 17.6 °F 48% 29.65 in 10.0 mi North 4.6 mph - N/A   Clear